Hovedside
METAR-TAF:

METAR-TAF

Lufthavner :

Vamdrup

Kolding, Danmark

breddegrad: 55-26N, lengdegrad: 009-20E, høyde over havet: 44 m

Gjeldene værobservasjon

Denne rapporten ble laget for 38 minutter siden, klokken 09:50 UTC
Vind 10 kt fra Vest
Temperatur 15°C
Luftfuktighet 67%
Trykk 1015 hPa
Sikt 10 km eller mer
Spredte skyer i en høyde av 2000 ft
Brutte skyer i en høyde av 4000 ft

METAR: EKVD 190950Z 27010KT 9999 SCT020 BKN040 15/09 Q1015

Tid: 12:28 (10:28 UTC)

Varsel

Denne rapporten ble laget for 2 timer og 5 minutter siden, klokken 08:23 UTC
Varsel gyldig fra 19. klokken 09 UTC til 19. klokken 16 UTC
Vind 15 kt fra Vest-nordvest
Sikt 10 km eller mer
Brutte skyer i en høyde av 3500 ft

TAF: EKVD 190823Z 1909/1916 29015KT 9999 BKN035

Værobservasjoner og værvarsel for over 4000 flyplasser (METAR- og TAF-rapporter).

Tilgjengelige stasjoner er representert av de røde og gule prikkene på kartet.

Hold musepekeren over prikken for å se navnet på stasjonen.

Klikk så for å se værobservasjoner og -varsler.

For å forandre kartet kan du klikke på den grønne knappen med svart kryss for å zoome inn, på den grønne knappen med strek for å zoome ut, eller på de grønne pilene for å se tilstøtende kart.


METAR-TAF: